地図

経路データ

SID SEASON NUMBER BASIN SUBBASIN NAME ISO_TIME NATURE LAT LON WMO_WIND WMO_PRES WMO_AGENCY TRACK_TYPE DIST2LAND LANDFALL IFLAG USA_AGENCY USA_ATCF_ID USA_LAT USA_LON USA_RECORD USA_STATUS USA_WIND USA_PRES USA_SSHS USA_R34_NE USA_R34_SE USA_R34_SW USA_R34_NW USA_R50_NE USA_R50_SE USA_R50_SW USA_R50_NW USA_R64_NE USA_R64_SE USA_R64_SW USA_R64_NW USA_POCI USA_ROCI USA_RMW USA_EYE TOKYO_LAT TOKYO_LON TOKYO_GRADE TOKYO_WIND TOKYO_PRES TOKYO_R50_DIR TOKYO_R50_LONG TOKYO_R50_SHORT TOKYO_R30_DIR TOKYO_R30_LONG TOKYO_R30_SHORT TOKYO_LAND CMA_LAT CMA_LON CMA_CAT CMA_WIND CMA_PRES HKO_LAT HKO_LON HKO_CAT HKO_WIND HKO_PRES NEWDELHI_LAT NEWDELHI_LON NEWDELHI_GRADE NEWDELHI_WIND NEWDELHI_PRES NEWDELHI_CI NEWDELHI_DP NEWDELHI_POCI REUNION_LAT REUNION_LON REUNION_TYPE REUNION_WIND REUNION_PRES REUNION_TNUM REUNION_CI REUNION_RMW REUNION_R34_NE REUNION_R34_SE REUNION_R34_SW REUNION_R34_NW REUNION_R50_NE REUNION_R50_SE REUNION_R50_SW REUNION_R50_NW REUNION_R64_NE REUNION_R64_SE REUNION_R64_SW REUNION_R64_NW BOM_LAT BOM_LON BOM_TYPE BOM_WIND BOM_PRES BOM_TNUM BOM_CI BOM_RMW BOM_R34_NE BOM_R34_SE BOM_R34_SW BOM_R34_NW BOM_R50_NE BOM_R50_SE BOM_R50_SW BOM_R50_NW BOM_R64_NE BOM_R64_SE BOM_R64_SW BOM_R64_NW BOM_ROCI BOM_POCI BOM_EYE BOM_POS_METHOD BOM_PRES_METHOD NADI_LAT NADI_LON NADI_CAT NADI_WIND NADI_PRES WELLINGTON_LAT WELLINGTON_LON WELLINGTON_WIND WELLINGTON_PRES DS824_LAT DS824_LON DS824_STAGE DS824_WIND DS824_PRES TD9636_LAT TD9636_LON TD9636_STAGE TD9636_WIND TD9636_PRES TD9635_LAT TD9635_LON TD9635_WIND TD9635_PRES TD9635_ROCI NEUMANN_LAT NEUMANN_LON NEUMANN_CLASS NEUMANN_WIND NEUMANN_PRES MLC_LAT MLC_LON MLC_CLASS MLC_WIND MLC_PRES USA_GUST BOM_GUST BOM_GUST_PER REUNION_GUST REUNION_GUST_PER USA_SEAHGT USA_SEARAD_NE USA_SEARAD_SE USA_SEARAD_SW USA_SEARAD_NW STORM_SPEED STORM_DIR
1945189N07140 1945 33 WP MM NOT_NAMED 1945-07-07 21:00:00 NR 7.30000 140.200 spur-merge 1021 1021 __________O___ -1 7.30000 140.200 7 26 86
1945189N07140 1945 33 WP MM NOT_NAMED 1945-07-08 00:00:00 NR 7.38928 141.489 spur-merge 1073 1073 __________P___ -1 7.38928 141.489 7 26 86
1945189N07140 1945 33 WP MM NOT_NAMED 1945-07-08 03:00:00 NR 7.50147 142.792 spur-merge 1137 1124 __________P___ -1 7.50147 142.792 7 26 84
1945189N07140 1945 33 WP MM NOT_NAMED 1945-07-08 06:00:00 NR 7.66296 144.124 spur-merge 1132 1118 __________P___ -1 7.66296 144.124 7 27 82
1945189N07140 1945 33 WP MM NOT_NAMED 1945-07-08 09:00:00 NR 7.90000 145.500 spur-merge 1127 1125 __________O___ -1 7.90000 145.500 7 28 78
1945189N07140 1945 33 WP MM NOT_NAMED 1945-07-08 12:00:00 NR 8.23032 146.906 spur-merge 1154 1154 __________P___ -1 8.23032 146.906 7 28 75
1945189N07140 1945 33 WP MM NOT_NAMED 1945-07-08 15:00:00 NR 8.63833 148.194 spur-merge 1202 1202 __________P___ -1 8.63833 148.194 7 24 69
1945189N07140 1945 33 WP MM NOT_NAMED 1945-07-08 18:00:00 NR 9.10181 149.186 spur-merge 1270 1270 __________P___ -1 9.10181 149.186 7 18 57
1945189N07140 1945 33 WP MM NOT_NAMED 1945-07-08 21:00:00 NR 9.60000 149.700 spur-merge 1335 1335 __________O___ -1 9.60000 149.700 7 11 20
1945189N07140 1945 33 WP MM NOT_NAMED 1945-07-09 00:00:00 NR 10.1269 149.576 spur-merge 1388 1388 __________P___ -1 10.1269 149.576 7 13 326
1945189N07140 1945 33 WP MM NOT_NAMED 1945-07-09 03:00:00 NR 10.6783 148.968 spur-merge 1445 1443 __________P___ -1 10.6783 148.968 7 19 306
1945189N07140 1945 33 WP MM NOT_NAMED 1945-07-09 06:00:00 NR 11.2155 148.051 spur-merge 1492 1491 __________P___ -1 11.2155 148.051 7 22 298
1945189N07140 1945 33 WP MM NOT_NAMED 1945-07-09 09:00:00 NR 11.7000 147.000 spur-merge 1546 1546 __________O___ -1 11.7000 147.000 7 22 293
1945189N07140 1945 33 WP MM NOT_NAMED 1945-07-09 12:00:00 NR 12.0975 145.964 spur-merge 1592 1592 __________P___ -1 12.0975 145.964 7 22 289
1945189N07140 1945 33 WP MM NOT_NAMED 1945-07-09 15:00:00 NR 12.4367 144.859 spur-merge 1635 1635 __________P___ -1 12.4367 144.859 7 22 287
1945189N07140 1945 33 WP MM NOT_NAMED 1945-07-09 18:00:00 NR 12.7320 143.824 spur-merge 1686 1686 __________P___ -1 12.7320 143.824 7 19 287
1945189N07140 1945 33 WP MM NOT_NAMED 1945-07-09 21:00:00 NR 13.0000 143.000 spur-merge 1719 1716 __________O___ -1 13.0000 143.000 7 13 294
1945189N07140 1945 33 WP MM NOT_NAMED 1945-07-10 00:00:00 NR 13.2608 142.585 spur-merge 1738 1735 __________P___ -1 13.2608 142.585 7 8 310
1945189N07140 1945 33 WP MM NOT_NAMED 1945-07-10 03:00:00 NR 13.5045 142.388 spur-merge 1754 1754 __________P___ -1 13.5045 142.388 7 6 330
1945189N07140 1945 33 WP MM NOT_NAMED 1945-07-10 06:00:00 NR 13.7460 142.297 spur-merge 1771 1771 __________P___ -1 13.7460 142.297 7 5 340
1945189N07140 1945 33 WP MM NOT_NAMED 1945-07-10 09:00:00 NR 14.0000 142.200 spur-merge 1797 1794 __________O___ -1 14.0000 142.200 7 7 330
1945189N07140 1945 33 WP MM NOT_NAMED 1945-07-10 12:00:00 NR 14.3179 141.957 spur-merge 1796 1771 __________P___ -1 14.3179 141.957 7 8 322
1945189N07140 1945 33 WP MM NOT_NAMED 1945-07-10 15:00:00 NR 14.6446 141.683 spur-merge 1771 1745 __________P___ -1 14.6446 141.683 7 9 318
1945189N07140 1945 33 WP MM NOT_NAMED 1945-07-10 18:00:00 NR 14.9490 141.367 spur-merge 1745 1708 __________P___ -1 14.9490 141.367 7 9 310
1945189N07140 1945 33 WP MM NOT_NAMED 1945-07-10 21:00:00 NR 15.2000 141.000 spur-merge 1708 1669 __________O___ -1 15.2000 141.000 7 9 303
1945189N07140 1945 33 WP MM NOT_NAMED 1945-07-11 00:00:00 NR 15.4264 140.592 spur-merge 1669 1632 __________P___ -1 15.4264 140.592 7 9 295
1945189N07140 1945 33 WP MM NOT_NAMED 1945-07-11 03:00:00 NR 15.5872 140.134 spur-merge 1621 1581 __________P___ -1 15.5872 140.134 7 10 284
1945189N07140 1945 33 WP MM NOT_NAMED 1945-07-11 06:00:00 NR 15.6544 139.633 spur-merge 1571 1516 __________P___ -1 15.6544 139.633 7 10 271
1945189N07140 1945 33 WP MM NOT_NAMED 1945-07-11 09:00:00 NR 15.6000 139.100 spur-merge 1516 1459 __________O___ -1 15.6000 139.100 7 11 254
1945189N07140 1945 33 WP MM NOT_NAMED 1945-07-11 12:00:00 NR 15.3448 138.523 spur-merge 1446 1387 __________P___ -1 15.3448 138.523 7 13 241
1945189N07140 1945 33 WP MM NOT_NAMED 1945-07-11 15:00:00 NR 14.9806 137.924 spur-merge 1376 1315 __________P___ -1 14.9806 137.924 7 14 237
1945189N07140 1945 33 WP MM NOT_NAMED 1945-07-11 18:00:00 NR 14.6010 137.339 spur-merge 1304 1245 __________P___ -1 14.6010 137.339 7 13 238
1945189N07140 1945 33 WP MM NOT_NAMED 1945-07-11 21:00:00 NR 14.3000 136.800 spur-merge 1245 1201 __________O___ -1 14.3000 136.800 7 10 246
1945189N07140 1945 33 WP MM NOT_NAMED 1945-07-12 00:00:00 NR 14.1773 136.363 spur-merge 1201 1157 __________P___ -1 14.1773 136.363 7 8 259
1945189N07140 1945 33 WP MM NOT_NAMED 1945-07-12 03:00:00 NR 14.1489 135.971 spur-merge 1157 1116 __________P___ -1 14.1489 135.971 7 7 271
1945189N07140 1945 33 WP MM NOT_NAMED 1945-07-12 06:00:00 NR 14.1961 135.593 spur-merge 1116 1076 __________P___ -1 14.1961 135.593 7 8 281
1945189N07140 1945 33 WP MM NOT_NAMED 1945-07-12 09:00:00 NR 14.3000 135.200 spur-merge 1076 1036 __________O___ -1 14.3000 135.200 7 8 283
1945189N07140 1945 33 WP MM NOT_NAMED 1945-07-12 12:00:00 NR 14.3881 134.742 spur-merge 1026 986 __________P___ -1 14.3881 134.742 7 9 284
1945189N07140 1945 33 WP MM NOT_NAMED 1945-07-12 15:00:00 NR 14.5300 134.264 spur-merge 986 940 __________P___ -1 14.5300 134.264 7 10 290
1945189N07140 1945 33 WP MM NOT_NAMED 1945-07-12 18:00:00 NR 14.7318 133.779 spur-merge 940 899 __________P___ -1 14.7318 133.779 7 10 297
1945189N07140 1945 33 WP MM NOT_NAMED 1945-07-12 21:00:00 NR 15.0000 133.300 spur-merge 899 871 __________O___ -1 15.0000 133.300 7 11 306
1945189N07140 1945 33 WP MM NOT_NAMED 1945-07-13 00:00:00 NR 15.3545 132.891 spur-merge 875 851 __________P___ -1 15.3545 132.891 7 11 314
1945189N07140 1945 33 WP MM NOT_NAMED 1945-07-13 03:00:00 NR 15.7682 132.482 spur-merge 856 835 __________P___ -1 15.7682 132.482 7 12 316
1945189N07140 1945 33 WP MM NOT_NAMED 1945-07-13 06:00:00 NR 16.1979 132.032 spur-merge 831 812 __________P___ -1 16.1979 132.032 7 13 311
1945189N07140 1945 33 WP MM NOT_NAMED 1945-07-13 09:00:00 NR 16.6000 131.500 spur-merge 812 768 __________O___ -1 16.6000 131.500 7 14 303
1945189N07140 1945 33 WP MM NOT_NAMED 1945-07-13 12:00:00 NR 16.9733 130.793 spur-merge 768 719 __________P___ -1 16.9733 130.793 7 16 296
1945189N07140 1945 33 WP MM NOT_NAMED 1945-07-13 15:00:00 NR 17.3022 130.010 spur-merge 710 661 __________P___ -1 17.3022 130.010 7 16 291
1945189N07140 1945 33 WP MM NOT_NAMED 1945-07-13 18:00:00 NR 17.5547 129.221 spur-merge 659 611 __________P___ -1 17.5547 129.221 7 15 285
1945189N07140 1945 33 WP MM NOT_NAMED 1945-07-13 21:00:00 NR 17.7000 128.500 spur-merge 611 565 __________O___ -1 17.7000 128.500 7 13 277
1945189N07140 1945 33 WP MM NOT_NAMED 1945-07-14 00:00:00 NR 17.7149 127.908 spur-merge 565 521 __________P___ -1 17.7149 127.908 7 11 266
1945189N07140 1945 33 WP MM NOT_NAMED 1945-07-14 03:00:00 NR 17.6264 127.398 spur-merge 521 481 __________P___ -1 17.6264 127.398 7 9 255
1945189N07140 1945 33 WP MM NOT_NAMED 1945-07-14 06:00:00 NR 17.4747 126.965 spur-merge 481 437 __________P___ -1 17.4747 126.965 7 8 247
1945189N07140 1945 33 WP MM NOT_NAMED 1945-07-14 09:00:00 NR 17.3000 126.600 spur-merge 437 404 __________O___ -1 17.3000 126.600 7 7 244
1945189N07140 1945 33 WP MM NOT_NAMED 1945-07-14 12:00:00 NR 17.1557 126.269 spur-merge 404 372 __________P___ -1 17.1557 126.269 7 6 242
1945189N07140 1945 33 WP MM NOT_NAMED 1945-07-14 15:00:00 NR 16.9994 126.003 spur-merge 372 351 __________P___ -1 16.9994 126.003 7 6 236
1945189N07140 1945 33 WP MM NOT_NAMED 1945-07-14 18:00:00 NR 16.8434 125.785 spur-merge 351 330 __________P___ -1 16.8434 125.785 7 5 232
1945189N07140 1945 33 WP MM NOT_NAMED 1945-07-14 21:00:00 NR 16.7000 125.600 spur-merge 330 318 __________O___ -1 16.7000 125.600 7 4 231
1945189N07140 1945 33 WP MM NOT_NAMED 1945-07-15 00:00:00 NR 16.5772 125.446 spur-merge 310 299 __________P___ -1 16.5772 125.446 7 4 230
1945189N07140 1945 33 WP MM NOT_NAMED 1945-07-15 03:00:00 NR 16.4695 125.315 spur-merge 299 285 __________P___ -1 16.4695 125.315 7 3 232
1945189N07140 1945 33 WP MM NOT_NAMED 1945-07-15 06:00:00 NR 16.3772 125.177 spur-merge 285 268 __________P___ -1 16.3772 125.177 7 3 241
1945189N07140 1945 33 WP MM NOT_NAMED 1945-07-15 09:00:00 NR 16.3000 125.000 spur-merge 268 243 __________O___ -1 16.3000 125.000 7 5 262
1945189N07140 1945 33 WP MM NOT_NAMED 1945-07-15 12:00:00 NR 16.3092 124.645 spur-merge 233 203 __________P___ -1 16.3092 124.645 7 7 272
1945189N07140 1945 33 WP MM NOT_NAMED 1945-07-15 15:00:00 NR 16.3206 124.264 spur-merge 203 173 __________P___ -1 16.3206 124.264 7 7 267
1945189N07140 1945 33 WP MM NOT_NAMED 1945-07-15 18:00:00 NR 16.2715 123.951 spur-merge 173 159 __________P___ -1 16.2715 123.951 7 5 244
1945189N07140 1945 33 WP MM NOT_NAMED 1945-07-15 21:00:00 NR 16.1000 123.800 spur-merge 165 165 __________O___ -1 16.1000 123.800 7 7 185
1945189N07140 1945 33 WP MM NOT_NAMED 1945-07-16 00:00:00 NR 15.5990 123.893 spur-merge 180 111 __________P___ -1 15.7622 123.879 7 12 163
1945189N07140 1945 33 WP MM NOT_NAMED 1945-07-16 03:00:00 NR 14.9945 124.156 spur-merge 111 57 __________P___ -1 15.2858 124.148 7 13 152
1945189N07140 1945 33 WP MM NOT_NAMED 1945-07-16 06:00:00 NR 14.4428 124.541 spur-merge 49 46 __________P___ -1 14.7164 124.544 7 12 138
1945189N07140 1945 33 WP MM NOT_NAMED 1945-07-16 09:00:00 NR 14.1000 125.000 spur-merge 68 68 __________O___ -1 14.1000 125.000 7 10 108
1945189N07140 1945 33 WP MM NOT_NAMED 1945-07-16 12:00:00 NR 14.1386 125.523 spur-merge 120 ______________ -1 7 10 86

デジタル台風データ・検索

IBTrACS Databaseについて

本データベースは、米国NOAAが公開する1842年以降の世界の熱帯低気圧のベストトラックデータアーカイブInternational Best Track Archive for Climate Stewardship (IBTrACS)を、ウェブで閲覧しやすい形式に変換したものです。

最終更新日:2021-10-08